Time;durP1;ratioP1;P1;durP2;ratioP2;P2;SDS_P1;SDS_P2;PMS_P1;PMS_P2;Temp;Humidity;BMP_temperature;BMP_pressure;BME280_temperature;BME280_humidity;BME280_pressure;Samples;Min_cycle;Max_cycle;Signal;HPM_P1;HPM_P2
2022/11/03 00:00:07;;;;;;;5.43;4.47;;;4.80;99.40;;;;;;5030133;28;20528;-54
2022/11/03 00:02:34;;;;;;;6.30;4.70;;;4.80;99.90;;;;;;5039819;28;20497;-53
2022/11/03 00:06:03;;;;;;;4.57;4.17;;;4.80;99.70;;;;;;5027956;28;20537;-53
2022/11/03 00:07:48;;;;;;;7.60;4.57;;;4.80;99.40;;;;;;5030142;28;20561;-53
2022/11/03 00:10:15;;;;;;;5.77;4.40;;;4.80;98.70;;;;;;5040700;28;20459;-52
2022/11/03 00:12:41;;;;;;;15.10;6.60;;;4.80;96.60;;;;;;5032969;28;20463;-52
2022/11/03 00:15:08;;;;;;;10.33;5.37;;;4.80;99.40;;;;;;5036415;28;20494;-52
2022/11/03 00:17:36;;;;;;;7.33;4.83;;;4.80;99.60;;;;;;5037060;28;20490;-54
2022/11/03 00:20:03;;;;;;;11.17;4.63;;;4.70;99.90;;;;;;5036214;28;20548;-53
2022/11/03 00:22:32;;;;;;;7.27;4.60;;;4.70;99.50;;;;;;5033291;28;20487;-53
2022/11/03 00:24:58;;;;;;;9.00;5.20;;;4.70;99.60;;;;;;5034005;28;20791;-52
2022/11/03 00:27:25;;;;;;;9.67;4.60;;;4.70;99.20;;;;;;5037331;28;20505;-53
2022/11/03 00:29:52;;;;;;;9.40;4.60;;;4.70;99.50;;;;;;5035701;28;20482;-53
2022/11/03 00:32:18;;;;;;;7.03;4.27;;;4.70;97.40;;;;;;5033165;28;20502;-54
2022/11/03 00:34:46;;;;;;;7.80;4.53;;;4.70;97.30;;;;;;5034773;28;21075;-53
2022/11/03 00:37:13;;;;;;;6.37;4.87;;;4.60;96.60;;;;;;5036728;28;20497;-53
2022/11/03 00:39:39;;;;;;;8.57;4.13;;;4.60;93.10;;;;;;5044366;28;20977;-53
2022/11/03 00:42:06;;;;;;;8.93;5.63;;;4.60;91.90;;;;;;5033787;28;20475;-53
2022/11/03 00:44:32;;;;;;;9.03;4.80;;;4.60;92.20;;;;;;5032741;28;20545;-53
2022/11/03 00:46:59;;;;;;;7.50;4.33;;;4.60;91.30;;;;;;5029644;28;20510;-53
2022/11/03 00:49:25;;;;;;;5.90;4.60;;;4.60;91.10;;;;;;5030718;28;20491;-53
2022/11/03 00:51:53;;;;;;;6.77;3.93;;;4.60;90.70;;;;;;5028204;28;20498;-53
2022/11/03 00:54:20;;;;;;;6.70;5.53;;;4.70;88.80;;;;;;5033101;28;20490;-53
2022/11/03 00:56:46;;;;;;;8.97;4.20;;;4.80;86.00;;;;;;5031410;28;20506;-53
2022/11/03 00:59:13;;;;;;;10.13;5.13;;;4.70;88.10;;;;;;5028941;28;20511;-53
2022/11/03 01:01:42;;;;;;;9.87;4.07;;;4.80;88.70;;;;;;5030399;28;20498;-54
2022/11/03 01:06:57;;;;;;;8.30;4.87;;;4.70;91.60;;;;;;5029793;28;20976;-51
2022/11/03 01:09:25;;;;;;;10.57;5.80;;;4.70;89.70;;;;;;5035461;28;20823;-54
2022/11/03 01:11:57;;;;;;;9.80;4.70;;;4.80;89.20;;;;;;5031055;28;20490;-55
2022/11/03 01:14:25;;;;;;;11.07;4.67;;;4.70;88.40;;;;;;5029151;28;21026;-52
2022/11/03 01:16:52;;;;;;;7.20;4.70;;;4.80;87.40;;;;;;5031379;28;20505;-53
2022/11/03 01:19:18;;;;;;;8.43;4.30;;;4.80;88.90;;;;;;5029467;28;20486;-54
2022/11/03 01:21:45;;;;;;;5.70;4.20;;;4.70;89.60;;;;;;5034844;28;20874;-54
2022/11/03 01:24:13;;;;;;;6.60;4.40;;;4.70;89.30;;;;;;5029051;28;20499;-52
2022/11/03 01:26:40;;;;;;;6.03;4.50;;;4.70;89.10;;;;;;5035211;28;20520;-54
2022/11/03 01:29:06;;;;;;;8.40;4.17;;;4.70;88.20;;;;;;5027409;28;20491;-52
2022/11/03 01:31:33;;;;;;;4.80;3.70;;;4.70;88.80;;;;;;5029648;28;20923;-52
2022/11/03 01:33:59;;;;;;;15.10;5.47;;;4.70;89.20;;;;;;5024696;28;20455;-54
2022/11/03 01:36:26;;;;;;;9.63;4.33;;;4.70;87.30;;;;;;5035091;28;20513;-52
2022/11/03 01:38:54;;;;;;;12.10;4.40;;;4.70;90.50;;;;;;5031471;28;21070;-54
2022/11/03 01:41:24;;;;;;;6.17;4.43;;;4.70;91.00;;;;;;5029394;28;20466;-54
2022/11/03 01:44:23;;;;;;;10.90;4.77;;;4.60;91.60;;;;;;5033682;28;20990;-54
2022/11/03 01:46:53;;;;;;;5.87;4.30;;;4.60;93.50;;;;;;5031321;28;20474;-54
2022/11/03 01:49:25;;;;;;;15.17;4.63;;;4.50;94.90;;;;;;5037856;28;20909;-53
2022/11/03 01:51:57;;;;;;;7.40;4.27;;;4.50;94.60;;;;;;5031440;28;20487;-55
2022/11/03 01:54:28;;;;;;;11.47;6.77;;;4.50;92.60;;;;;;5031154;28;20862;-52
2022/11/03 01:56:57;;;;;;;9.07;6.93;;;4.80;79.70;;;;;;5027451;28;20482;-53
2022/11/03 01:59:24;;;;;;;14.07;8.47;;;4.70;84.70;;;;;;5028837;28;20535;-52
2022/11/03 02:01:51;;;;;;;8.83;5.37;;;4.70;85.80;;;;;;5027176;28;20495;-52
2022/11/03 02:04:23;;;;;;;8.90;5.17;;;4.80;82.80;;;;;;5025882;28;20946;-53
2022/11/03 02:06:54;;;;;;;9.40;5.73;;;5.00;76.60;;;;;;5028820;28;20518;-54
2022/11/03 02:09:21;;;;;;;10.23;5.00;;;5.20;72.90;;;;;;5029774;28;20543;-53
2022/11/03 02:12:06;;;;;;;9.43;5.70;;;5.30;71.70;;;;;;5029635;28;20877;-52
2022/11/03 02:14:35;;;;;;;7.70;4.67;;;5.40;73.30;;;;;;5027081;28;20832;-54
2022/11/03 02:17:07;;;;;;;7.67;5.33;;;5.50;74.50;;;;;;5029763;28;20515;-54
2022/11/03 02:19:39;;;;;;;8.73;4.93;;;5.50;73.60;;;;;;5032766;28;20557;-53
2022/11/03 02:22:19;;;;;;;10.33;4.73;;;5.60;73.40;;;;;;5031961;28;20504;-53
2022/11/03 02:24:51;;;;;;;8.30;4.73;;;5.70;75.70;;;;;;5035363;28;20515;-53
2022/11/03 02:27:20;;;;;;;10.57;5.50;;;5.70;77.20;;;;;;5028558;28;20614;-54
2022/11/03 02:29:46;;;;;;;6.63;5.33;;;5.80;79.80;;;;;;5031134;28;20487;-53
2022/11/03 02:32:21;;;;;;;15.73;5.20;;;5.70;84.00;;;;;;5026581;28;20518;-53
2022/11/03 02:34:53;;;;;;;10.73;4.73;;;5.70;83.10;;;;;;5029087;28;20536;-54
2022/11/03 02:37:23;;;;;;;10.50;4.80;;;5.70;84.80;;;;;;5030344;28;20533;-54
2022/11/03 02:39:54;;;;;;;10.20;4.37;;;5.70;84.90;;;;;;5030320;28;20514;-53
2022/11/03 02:42:25;;;;;;;8.90;4.80;;;5.70;85.10;;;;;;5021801;28;20467;-53
2022/11/03 02:44:53;;;;;;;12.70;5.60;;;5.70;86.10;;;;;;5036131;28;20497;-52
2022/11/03 02:47:23;;;;;;;15.10;5.53;;;5.70;86.00;;;;;;5028724;28;20486;-52
2022/11/03 02:49:51;;;;;;;12.50;5.10;;;5.70;85.50;;;;;;5029099;28;20560;-52
2022/11/03 02:52:37;;;;;;;20.63;5.23;;;5.70;85.00;;;;;;5030332;28;20490;-51
2022/11/03 02:55:10;;;;;;;12.57;5.40;;;5.70;85.50;;;;;;5032059;28;20975;-53
2022/11/03 02:57:44;;;;;;;8.50;5.40;;;5.70;86.00;;;;;;5030488;28;20916;-53
2022/11/03 03:00:12;;;;;;;12.53;5.60;;;5.70;87.10;;;;;;5029341;28;20477;-54
2022/11/03 03:02:42;;;;;;;11.07;5.00;;;5.60;87.50;;;;;;5025134;28;20459;-52
2022/11/03 03:05:11;;;;;;;11.83;4.97;;;5.60;87.00;;;;;;5029887;28;20528;-52
2022/11/03 03:07:44;;;;;;;9.40;5.10;;;5.60;86.10;;;;;;5028360;28;20541;-53
2022/11/03 03:10:14;;;;;;;14.93;4.20;;;5.60;85.90;;;;;;5029974;28;20540;-53
2022/11/03 03:12:46;;;;;;;11.47;4.90;;;5.50;85.40;;;;;;5030594;28;20459;-52
2022/11/03 03:15:13;;;;;;;10.20;4.77;;;5.50;85.80;;;;;;5028872;28;20540;-52
2022/11/03 03:17:45;;;;;;;10.73;5.13;;;5.50;84.70;;;;;;5033388;28;20509;-52
2022/11/03 03:20:15;;;;;;;18.13;4.40;;;5.50;85.00;;;;;;5034172;28;20489;-53
2022/11/03 03:22:49;;;;;;;5.63;3.80;;;5.50;83.20;;;;;;5031516;28;20856;-52
2022/11/03 03:25:18;;;;;;;7.67;4.40;;;5.50;81.60;;;;;;5034639;28;20483;-53
2022/11/03 03:27:55;;;;;;;12.10;4.43;;;5.50;81.80;;;;;;5036909;28;20561;-52
2022/11/03 03:30:21;;;;;;;7.73;4.30;;;5.50;81.30;;;;;;5032960;28;20504;-53
2022/11/03 03:32:50;;;;;;;6.77;4.00;;;5.50;82.60;;;;;;5032947;28;20485;-52
2022/11/03 03:35:22;;;;;;;5.93;3.93;;;5.50;84.80;;;;;;5033761;28;20462;-53
2022/11/03 03:37:51;;;;;;;8.10;4.50;;;5.40;85.70;;;;;;5028892;28;20505;-52
2022/11/03 03:40:24;;;;;;;7.47;4.20;;;5.30;84.30;;;;;;5034004;28;20488;-53
2022/11/03 03:42:53;;;;;;;6.13;3.87;;;5.30;82.70;;;;;;5031788;28;20486;-53
2022/11/03 03:45:20;;;;;;;6.93;3.73;;;5.40;81.60;;;;;;5034036;28;20999;-54
2022/11/03 03:47:48;;;;;;;4.80;4.27;;;5.40;80.00;;;;;;5033621;28;20544;-52
2022/11/03 03:50:14;;;;;;;7.13;4.23;;;5.30;79.30;;;;;;5038433;28;20455;-52
2022/11/03 03:52:41;;;;;;;5.30;3.67;;;5.30;82.70;;;;;;5032681;28;20968;-54
2022/11/03 03:55:15;;;;;;;9.50;4.03;;;5.30;80.90;;;;;;5032907;28;20524;-54
2022/11/03 03:57:43;;;;;;;9.80;4.40;;;5.30;79.90;;;;;;5031666;28;20482;-54
2022/11/03 04:00:14;;;;;;;5.93;3.40;;;5.30;79.00;;;;;;5036664;28;20551;-54
2022/11/03 04:02:41;;;;;;;5.90;3.70;;;5.30;79.40;;;;;;5029162;28;20533;-53
2022/11/03 04:05:08;;;;;;;12.63;4.07;;;5.30;77.50;;;;;;5032947;28;20521;-53
2022/11/03 04:07:46;;;;;;;9.47;3.57;;;5.40;75.40;;;;;;5028400;28;20486;-53
2022/11/03 04:10:13;;;;;;;7.10;3.83;;;5.40;74.40;;;;;;5036092;28;20447;-53
2022/11/03 04:23:38;;;;;;;14.13;3.83;;;5.40;76.30;;;;;;5034584;28;20505;-52
2022/11/03 04:26:11;;;;;;;6.70;3.63;;;5.50;75.20;;;;;;5037746;28;20884;-53
2022/11/03 04:28:37;;;;;;;6.20;3.73;;;5.40;76.70;;;;;;5040556;28;20566;-53
2022/11/03 04:31:09;;;;;;;6.67;4.20;;;5.40;77.80;;;;;;5031522;28;20491;-53
2022/11/03 04:33:36;;;;;;;6.37;3.93;;;5.40;77.80;;;;;;5030766;28;20556;-53
2022/11/03 04:36:12;;;;;;;10.60;5.20;;;5.50;76.60;;;;;;5032885;28;20478;-53
2022/11/03 04:38:39;;;;;;;5.83;3.60;;;5.40;78.40;;;;;;5034072;28;20548;-52
2022/11/03 04:41:12;;;;;;;11.50;4.10;;;5.40;77.90;;;;;;5031627;28;20585;-52
2022/11/03 04:43:38;;;;;;;14.27;4.03;;;5.50;76.90;;;;;;5035236;28;20512;-53
2022/11/03 04:46:11;;;;;;;5.77;3.23;;;5.50;77.10;;;;;;5032665;28;20617;-53
2022/11/03 04:48:37;;;;;;;8.20;3.33;;;5.50;76.90;;;;;;5031561;28;20458;-53
2022/11/03 04:51:14;;;;;;;7.47;3.47;;;5.50;78.00;;;;;;5029895;28;20458;-53
2022/11/03 04:53:46;;;;;;;7.77;3.30;;;5.50;77.40;;;;;;5026529;28;21000;-53
2022/11/03 04:56:16;;;;;;;9.37;5.60;;;5.50;77.50;;;;;;5031161;28;20533;-53
2022/11/03 04:58:43;;;;;;;6.00;4.30;;;5.50;78.90;;;;;;5034419;28;20454;-54
2022/11/03 05:01:13;;;;;;;7.73;5.17;;;5.60;78.00;;;;;;5030208;28;20996;-53
2022/11/03 05:03:42;;;;;;;7.13;5.17;;;5.60;78.30;;;;;;5032491;28;20533;-53
2022/11/03 05:06:12;;;;;;;14.67;5.03;;;5.60;79.20;;;;;;5034885;28;20575;-53
2022/11/03 05:08:39;;;;;;;8.83;4.40;;;5.60;80.30;;;;;;5030831;28;20458;-54
2022/11/03 05:11:14;;;;;;;6.43;4.73;;;5.50;80.00;;;;;;5031163;28;20536;-52
2022/11/03 05:13:41;;;;;;;8.47;5.03;;;5.60;80.80;;;;;;5038538;28;20458;-52
2022/11/03 05:16:08;;;;;;;10.03;4.70;;;5.60;81.40;;;;;;5031924;28;20482;-52
2022/11/03 05:18:38;;;;;;;12.77;5.07;;;5.60;81.60;;;;;;5031646;28;20455;-53
2022/11/03 05:21:07;;;;;;;7.07;4.57;;;5.60;81.70;;;;;;5027970;28;20478;-52
2022/11/03 05:23:39;;;;;;;12.07;5.00;;;5.60;82.40;;;;;;5036714;28;20541;-53
2022/11/03 05:26:10;;;;;;;11.03;4.90;;;5.60;82.70;;;;;;5031740;28;20467;-53
2022/11/03 05:28:41;;;;;;;7.87;4.03;;;5.50;83.40;;;;;;5030244;28;20463;-53
2022/11/03 05:31:20;;;;;;;7.50;4.43;;;5.50;81.80;;;;;;5028279;28;20854;-53
2022/11/03 05:33:51;;;;;;;15.73;5.00;;;5.50;82.70;;;;;;5031848;28;20535;-53
2022/11/03 05:36:21;;;;;;;9.80;5.77;;;5.50;82.20;;;;;;5030143;28;21074;-53
2022/11/03 05:38:48;;;;;;;8.23;5.70;;;5.60;81.70;;;;;;5029107;28;20545;-54
2022/11/03 05:41:20;;;;;;;8.73;6.57;;;5.50;81.70;;;;;;5029883;28;20486;-53
2022/11/03 05:43:55;;;;;;;14.10;11.33;;;5.50;82.10;;;;;;5031585;28;20490;-53
2022/11/03 05:46:21;;;;;;;16.23;7.67;;;5.50;81.70;;;;;;5031274;28;20536;-53
2022/11/03 05:48:49;;;;;;;6.73;4.50;;;5.60;80.50;;;;;;5034155;28;20462;-53
2022/11/03 05:51:21;;;;;;;14.57;4.10;;;5.60;80.70;;;;;;5026918;28;20557;-53
2022/11/03 05:53:52;;;;;;;7.20;4.00;;;5.60;80.60;;;;;;5032517;28;20515;-53
2022/11/03 05:56:21;;;;;;;8.50;4.60;;;5.60;80.40;;;;;;5034557;28;20478;-53
2022/11/03 05:58:50;;;;;;;11.50;4.70;;;5.60;82.00;;;;;;5026969;28;20491;-53
2022/11/03 06:01:20;;;;;;;9.53;4.83;;;5.60;82.40;;;;;;5028759;28;20482;-53
2022/11/03 06:03:47;;;;;;;12.90;6.50;;;5.50;83.40;;;;;;5034116;28;20459;-53
2022/11/03 06:06:18;;;;;;;11.47;5.67;;;5.50;83.00;;;;;;5030260;28;20518;-53
2022/11/03 06:08:45;;;;;;;11.37;8.77;;;5.50;82.40;;;;;;5031751;28;20463;-54
2022/11/03 06:11:21;;;;;;;27.90;17.67;;;5.50;82.30;;;;;;5028251;28;22474;-53
2022/11/03 06:13:47;;;;;;;26.30;19.33;;;5.40;81.70;;;;;;5034190;28;20485;-53
2022/11/03 06:16:36;;;;;;;12.77;10.27;;;5.40;80.50;;;;;;5030668;28;20479;-53
2022/11/03 06:19:14;;;;;;;13.60;7.40;;;5.40;78.70;;;;;;5026931;28;20520;-53
2022/11/03 06:21:43;;;;;;;10.60;5.23;;;5.30;81.50;;;;;;5028476;28;20528;-53
2022/11/03 06:24:12;;;;;;;8.17;4.50;;;5.30;81.00;;;;;;5030887;28;20459;-51
2022/11/03 06:26:39;;;;;;;12.53;4.80;;;5.30;80.20;;;;;;5033131;28;21005;-52
2022/11/03 06:29:12;;;;;;;7.73;4.50;;;5.30;79.60;;;;;;5027978;28;20466;-54
2022/11/03 06:31:39;;;;;;;10.63;5.20;;;5.30;77.80;;;;;;5035260;28;20447;-53
2022/11/03 06:34:18;;;;;;;11.30;4.60;;;5.30;76.30;;;;;;5032632;28;20494;-53
2022/11/03 06:36:46;;;;;;;9.97;4.57;;;5.50;74.70;;;;;;5032788;28;20505;-53
2022/11/03 06:39:20;;;;;;;8.03;4.20;;;5.50;74.90;;;;;;5033632;28;20942;-53
2022/11/03 06:41:47;;;;;;;9.20;4.30;;;5.50;75.20;;;;;;5029298;28;20515;-53
2022/11/03 06:44:21;;;;;;;13.47;4.77;;;5.60;75.40;;;;;;5034037;28;20507;-53
2022/11/03 06:46:48;;;;;;;14.07;4.93;;;5.60;76.50;;;;;;5031500;28;21137;-54
2022/11/03 06:49:27;;;;;;;13.30;7.60;;;5.60;77.70;;;;;;5030233;28;20462;-53
2022/11/03 06:51:55;;;;;;;6.70;4.03;;;5.70;78.20;;;;;;5030811;28;20485;-53
2022/11/03 06:54:22;;;;;;;6.80;4.53;;;5.70;79.30;;;;;;5031898;28;20886;-53
2022/11/03 06:56:48;;;;;;;6.70;4.47;;;5.70;81.70;;;;;;5032231;28;20516;-53
2022/11/03 06:59:16;;;;;;;8.40;4.20;;;5.70;84.00;;;;;;5032701;28;20474;-53
2022/11/03 07:01:45;;;;;;;9.37;4.90;;;5.70;83.20;;;;;;5027890;28;20514;-53
2022/11/03 07:04:17;;;;;;;7.60;4.10;;;5.80;84.10;;;;;;5034617;28;20502;-52
2022/11/03 07:06:46;;;;;;;14.40;4.30;;;5.90;82.50;;;;;;5036621;28;22308;-51
2022/11/03 07:09:19;;;;;;;14.37;5.97;;;6.40;84.60;;;;;;5030657;28;20516;-53
2022/11/03 07:11:48;;;;;;;13.57;4.53;;;6.70;99.90;;;;;;5033305;28;20528;-53
2022/11/03 07:14:18;;;;;;;11.00;4.63;;;7.10;99.90;;;;;;5028114;28;20468;-52
2022/11/03 07:16:48;;;;;;;7.53;3.90;;;7.40;99.90;;;;;;5021119;28;20493;-54
2022/11/03 07:19:19;;;;;;;7.63;5.00;;;7.60;99.90;;;;;;5030653;28;20544;-53
2022/11/03 07:21:48;;;;;;;9.63;4.47;;;7.70;99.90;;;;;;5036288;28;20568;-53
2022/11/03 07:24:21;;;;;;;7.27;4.73;;;8.80;99.90;;;;;;5029196;28;20470;-52
2022/11/03 07:26:49;;;;;;;13.53;5.07;;;8.80;37.20;;;;;;5031128;28;20518;-53
2022/11/03 07:29:19;;;;;;;11.67;5.03;;;9.30;32.70;;;;;;5036660;28;20467;-52
2022/11/03 07:31:46;;;;;;;10.00;4.10;;;9.60;63.40;;;;;;5034772;28;20446;-51
2022/11/03 07:34:20;;;;;;;8.70;4.50;;;9.60;71.20;;;;;;5038245;28;20481;-51
2022/11/03 07:36:47;;;;;;;10.23;4.97;;;9.60;78.90;;;;;;5028792;28;20482;-50
2022/11/03 07:39:20;;;;;;;14.90;6.40;;;9.60;70.40;;;;;;5040512;28;20535;-50
2022/11/03 07:41:47;;;;;;;9.60;4.80;;;9.40;61.30;;;;;;5030982;28;20487;-51
2022/11/03 07:44:16;;;;;;;13.50;4.40;;;9.10;49.00;;;;;;5031901;28;20466;-50
2022/11/03 07:46:43;;;;;;;6.83;4.30;;;8.70;98.80;;;;;;5032733;28;20474;-51
2022/11/03 07:49:21;;;;;;;10.30;5.67;;;8.70;27.00;;;;;;5032268;28;20462;-51
2022/11/03 07:51:49;;;;;;;10.77;4.83;;;8.60;94.40;;;;;;5030017;28;20482;-51
2022/11/03 07:54:22;;;;;;;6.03;4.40;;;8.50;99.90;;;;;;5039876;28;20472;-51
2022/11/03 07:56:52;;;;;;;9.30;5.23;;;8.60;99.90;;;;;;5036748;28;20485;-51
2022/11/03 07:59:21;;;;;;;12.80;5.13;;;8.70;99.90;;;;;;5033629;28;20459;-51
2022/11/03 08:01:50;;;;;;;13.63;4.17;;;8.50;99.90;;;;;;5034003;28;20486;-51
2022/11/03 08:04:19;;;;;;;11.70;5.20;;;8.60;99.90;;;;;;5034595;28;20482;-51
2022/11/03 08:06:47;;;;;;;12.87;5.10;;;8.60;99.90;;;;;;5025467;28;20528;-51
2022/11/03 08:09:13;;;;;;;12.40;4.33;;;8.40;99.90;;;;;;5028522;28;20514;-51
2022/11/03 08:11:41;;;;;;;19.73;4.80;;;8.40;99.90;;;;;;5032018;28;20458;-50
2022/11/03 08:14:08;;;;;;;7.80;4.37;;;8.50;99.90;;;;;;5028823;28;21030;-50
2022/11/03 08:16:34;;;;;;;8.40;4.03;;;8.60;99.90;;;;;;5033862;28;20482;-50
2022/11/03 08:19:01;;;;;;;8.67;4.90;;;8.70;99.90;;;;;;5036695;28;20471;-50
2022/11/03 08:21:28;;;;;;;10.50;4.33;;;8.80;99.90;;;;;;5027191;28;20564;-51
2022/11/03 08:23:54;;;;;;;11.93;4.30;;;8.90;99.90;;;;;;5028158;28;20490;-51
2022/11/03 08:26:21;;;;;;;10.00;4.83;;;8.90;99.90;;;;;;5022143;28;20486;-50
2022/11/03 08:28:49;;;;;;;13.20;4.73;;;9.20;99.90;;;;;;5022186;28;20550;-51
2022/11/03 08:31:16;;;;;;;16.27;5.30;;;9.50;40.90;;;;;;5017365;28;21043;-51
2022/11/03 08:33:43;;;;;;;10.93;4.60;;;10.90;91.80;;;;;;5030592;28;20965;-50
2022/11/03 08:36:10;;;;;;;12.10;5.40;;;11.20;99.90;;;;;;5027431;28;20837;-50
2022/11/03 08:38:37;;;;;;;6.87;4.43;;;12.30;99.90;;;;;;5021252;28;20965;-51
2022/11/03 08:41:04;;;;;;;11.00;4.20;;;12.80;99.90;;;;;;5034301;28;20514;-50
2022/11/03 08:43:30;;;;;;;12.37;4.43;;;12.90;99.90;;;;;;5029992;28;20830;-50
2022/11/03 08:45:58;;;;;;;20.10;5.03;;;12.30;99.90;;;;;;5029023;28;20568;-51
2022/11/03 08:48:27;;;;;;;12.30;4.10;;;13.70;99.90;;;;;;5029057;28;20458;-51
2022/11/03 08:50:54;;;;;;;21.50;5.70;;;13.30;37.30;;;;;;5018577;28;20462;-51
2022/11/03 08:53:22;;;;;;;13.53;4.70;;;12.10;23.50;;;;;;5031085;28;20510;-51
2022/11/03 08:55:48;;;;;;;7.40;4.30;;;12.90;46.90;;;;;;5033467;28;20533;-51
2022/11/03 08:58:15;;;;;;;10.10;3.93;;;12.90;35.50;;;;;;5028922;28;22024;-51
2022/11/03 09:00:42;;;;;;;12.50;5.07;;;12.90;36.60;;;;;;5028916;28;20459;-51
2022/11/03 09:03:10;;;;;;;8.20;4.57;;;13.00;39.40;;;;;;5037574;28;20515;-50
2022/11/03 09:05:37;;;;;;;6.40;4.00;;;12.60;26.90;;;;;;5028543;28;20458;-51
2022/11/03 09:08:04;;;;;;;15.43;4.47;;;12.10;99.90;;;;;;5031620;28;20947;-50
2022/11/03 09:10:31;;;;;;;12.57;4.40;;;11.70;99.90;;;;;;5031568;28;20976;-50
2022/11/03 09:12:58;;;;;;;10.73;4.00;;;11.80;99.90;;;;;;5026881;28;20447;-50
2022/11/03 09:15:24;;;;;;;8.50;3.17;;;11.70;99.90;;;;;;5032026;28;20833;-51
2022/11/03 09:17:51;;;;;;;7.47;3.57;;;11.80;99.90;;;;;;5028933;28;20479;-51
2022/11/03 09:20:20;;;;;;;8.00;3.77;;;12.00;99.90;;;;;;5030830;28;20455;-51
2022/11/03 09:22:46;;;;;;;9.13;3.70;;;12.10;99.90;;;;;;5031605;28;20482;-51
2022/11/03 09:25:13;;;;;;;7.83;3.30;;;12.20;26.50;;;;;;5032195;28;21403;-51
2022/11/03 09:27:39;;;;;;;6.90;3.37;;;11.80;99.90;;;;;;5029231;28;20532;-50
2022/11/03 09:30:07;;;;;;;7.47;3.50;;;11.70;85.10;;;;;;5030119;28;20455;-50
2022/11/03 09:32:34;;;;;;;8.60;3.27;;;11.90;25.00;;;;;;5034150;28;20458;-50
2022/11/03 09:35:01;;;;;;;10.80;4.73;;;12.50;36.50;;;;;;5030021;28;20534;-50
2022/11/03 09:37:29;;;;;;;7.90;3.60;;;13.30;61.20;;;;;;5032214;28;20514;-51
2022/11/03 09:39:56;;;;;;;9.60;3.53;;;14.40;80.00;;;;;;5029558;28;20493;-49
2022/11/03 09:42:23;;;;;;;10.30;3.67;;;14.80;99.90;;;;;;5033069;28;20485;-50
2022/11/03 09:44:52;;;;;;;12.20;3.63;;;14.80;99.90;;;;;;5035999;28;20504;-50
2022/11/03 09:47:23;;;;;;;7.67;3.97;;;15.60;99.90;;;;;;5028612;28;20481;-51
2022/11/03 09:49:50;;;;;;;7.10;3.20;;;16.00;99.90;;;;;;5030768;28;20454;-51
2022/11/03 09:52:21;;;;;;;12.43;4.13;;;16.50;99.90;;;;;;5027756;28;20858;-50
2022/11/03 09:54:51;;;;;;;4.50;2.70;;;15.90;99.90;;;;;;5029724;28;20859;-50
2022/11/03 09:57:18;;;;;;;7.20;3.30;;;16.30;99.90;;;;;;5028702;28;20490;-51
2022/11/03 09:59:47;;;;;;;8.63;3.27;;;16.30;99.90;;;;;;5030639;28;20516;-50
2022/11/03 10:02:21;;;;;;;5.70;3.00;;;16.60;99.90;;;;;;5027829;28;20479;-52
2022/11/03 10:04:48;;;;;;;6.40;2.90;;;16.30;99.90;;;;;;5026109;28;20473;-50
2022/11/03 10:07:15;;;;;;;8.27;3.50;;;15.50;99.90;;;;;;5032186;28;20551;-50
2022/11/03 10:09:45;;;;;;;11.13;3.53;;;14.50;99.90;;;;;;5042436;22;20534;-51
2022/11/03 10:12:13;;;;;;;11.33;4.03;;;14.80;99.90;;;;;;5028304;28;20454;-51
2022/11/03 10:14:41;;;;;;;5.73;3.03;;;15.00;99.90;;;;;;5036425;28;20992;-51
2022/11/03 10:17:14;;;;;;;10.87;3.83;;;14.60;99.90;;;;;;5030081;28;20472;-51
2022/11/03 10:19:41;;;;;;;7.20;2.73;;;14.30;99.90;;;;;;5033946;28;20490;-51
2022/11/03 10:22:07;;;;;;;6.17;3.00;;;14.20;99.90;;;;;;5026515;28;20486;-51
2022/11/03 10:24:34;;;;;;;15.73;2.90;;;14.00;99.90;;;;;;5025326;28;20557;-52
2022/11/03 10:27:01;;;;;;;5.40;2.33;;;14.00;99.70;;;;;;5028308;28;20466;-53
2022/11/03 10:29:29;;;;;;;14.73;3.10;;;13.50;96.70;;;;;;5031642;28;21276;-57
2022/11/03 10:31:57;;;;;;;11.83;3.00;;;13.10;90.60;;;;;;5030417;28;20954;-54
2022/11/03 10:34:27;;;;;;;4.67;2.30;;;13.10;85.90;;;;;;5027640;28;21342;-52
2022/11/03 10:37:16;;;;;;;4.17;2.60;;;13.10;84.20;;;;;;5030284;28;20463;-52
2022/11/03 10:39:43;;;;;;;9.00;2.87;;;13.20;80.80;;;;;;5034941;28;20479;-52
2022/11/03 10:42:18;;;;;;;7.53;3.07;;;13.00;80.30;;;;;;5030527;28;20490;-59
2022/11/03 10:44:47;;;;;;;7.53;3.00;;;12.90;81.70;;;;;;5025636;28;20455;-54
2022/11/03 10:47:33;;;;;;;6.03;2.90;;;13.00;77.70;;;;;;5030908;28;20463;-66
2022/11/03 10:50:01;;;;;;;6.20;2.30;;;12.80;72.80;;;;;;5028903;28;20864;-60
2022/11/03 10:52:29;;;;;;;7.23;3.10;;;12.90;71.80;;;;;;5027988;28;20525;-56
2022/11/03 10:54:58;;;;;;;6.00;2.97;;;12.80;72.90;;;;;;5029648;28;20547;-54
2022/11/03 10:57:26;;;;;;;6.83;2.60;;;12.80;66.50;;;;;;5030877;28;20503;-52
2022/11/03 10:59:55;;;;;;;5.03;2.40;;;12.90;62.90;;;;;;5031287;28;20836;-56
2022/11/03 11:02:23;;;;;;;5.70;2.70;;;12.70;73.70;;;;;;5025840;28;20471;-53
2022/11/03 11:04:56;;;;;;;6.67;2.17;;;12.70;66.10;;;;;;5025061;28;20459;-52
2022/11/03 11:07:28;;;;;;;9.43;4.00;;;12.80;67.60;;;;;;5025322;28;20467;-52
2022/11/03 11:09:55;;;;;;;8.70;2.97;;;12.70;58.40;;;;;;5020401;28;20490;-53
2022/11/03 11:12:23;;;;;;;12.40;3.27;;;12.70;61.80;;;;;;5020524;28;20463;-52
2022/11/03 11:14:56;;;;;;;6.93;3.20;;;12.70;62.20;;;;;;5024587;28;21032;-52
2022/11/03 11:17:46;;;;;;;9.33;3.00;;;12.60;57.50;;;;;;5020365;28;20454;-52
2022/11/03 11:20:37;;;;;;;7.80;2.53;;;12.50;56.10;;;;;;5031169;28;20469;-52
2022/11/03 11:23:46;;;;;;;10.03;3.70;;;12.40;44.40;;;;;;5027598;28;20489;-52
2022/11/03 11:26:32;;;;;;;13.20;3.10;;;12.50;48.10;;;;;;4959257;28;20560;-52
2022/11/03 11:29:41;;;;;;;7.77;2.50;;;12.50;53.50;;;;;;4939354;28;20482;-52
2022/11/03 11:32:50;;;;;;;9.33;2.73;;;12.40;52.30;;;;;;5014722;28;20455;-52
2022/11/03 11:36:03;;;;;;;12.33;3.30;;;12.50;44.20;;;;;;5025958;28;20537;-51
2022/11/03 11:39:01;;;;;;;10.93;3.47;;;12.50;47.10;;;;;;5020903;28;20478;-51
2022/11/03 11:42:04;;;;;;;13.77;3.13;;;12.40;44.80;;;;;;4939260;28;20470;-51
2022/11/03 11:45:04;;;;;;;8.57;2.80;;;12.40;41.60;;;;;;5020963;28;20838;-51
2022/11/03 11:47:43;;;;;;;8.67;3.13;;;12.30;43.00;;;;;;5015413;28;20463;-51
2022/11/03 11:50:32;;;;;;;7.67;3.20;;;12.40;41.10;;;;;;5024906;28;20454;-52
2022/11/03 11:53:03;;;;;;;10.10;2.53;;;12.30;41.10;;;;;;5028547;28;20462;-52
2022/11/03 11:55:34;;;;;;;4.37;2.63;;;12.30;40.60;;;;;;5038267;28;20458;-52
2022/11/03 11:58:04;;;;;;;5.67;2.70;;;12.30;36.20;;;;;;5030507;28;20494;-51
2022/11/03 12:00:33;;;;;;;2.80;2.27;;;12.30;36.90;;;;;;5027906;28;20463;-52
2022/11/03 12:03:01;;;;;;;15.07;3.43;;;12.30;33.60;;;;;;5038606;28;20780;-51
2022/11/03 12:05:31;;;;;;;7.93;3.37;;;12.30;37.80;;;;;;5032735;28;20443;-51
2022/11/03 12:07:59;;;;;;;6.00;2.87;;;12.30;37.90;;;;;;5035267;28;20857;-52
2022/11/03 12:10:27;;;;;;;7.93;3.20;;;12.30;35.70;;;;;;5035326;28;20536;-51
2022/11/03 12:12:55;;;;;;;7.17;3.17;;;12.30;33.10;;;;;;5032287;28;20866;-52
2022/11/03 12:15:50;;;;;;;7.10;3.20;;;12.40;33.00;;;;;;5026067;28;20443;-51
2022/11/03 12:18:34;;;;;;;8.93;2.77;;;12.40;32.00;;;;;;5021376;28;20590;-51
2022/11/03 12:21:01;;;;;;;8.20;3.30;;;12.40;24.70;;;;;;5040159;28;20443;-51
2022/11/03 12:23:43;;;;;;;8.33;3.33;;;12.40;29.40;;;;;;5038271;28;20486;-52
2022/11/03 12:26:18;;;;;;;9.80;2.90;;;12.40;27.20;;;;;;5028273;28;20478;-51
2022/11/03 12:28:45;;;;;;;11.00;3.60;;;12.30;27.70;;;;;;5035584;28;20482;-51
2022/11/03 12:31:12;;;;;;;8.70;2.90;;;12.30;22.80;;;;;;5040388;28;20458;-51
2022/11/03 12:33:39;;;;;;;6.27;3.03;;;12.30;25.50;;;;;;5044322;28;20463;-51
2022/11/03 12:36:06;;;;;;;10.23;3.13;;;12.30;29.30;;;;;;5029909;28;20436;-52
2022/11/03 12:38:33;;;;;;;5.00;2.37;;;12.20;29.40;;;;;;5035376;28;20478;-52
2022/11/03 12:41:19;;;;;;;11.17;2.70;;;12.20;26.60;;;;;;5029546;28;20451;-51
2022/11/03 12:43:47;;;;;;;14.30;3.87;;;12.30;26.20;;;;;;5039107;28;20477;-51
2022/11/03 12:46:16;;;;;;;8.40;3.27;;;12.30;21.20;;;;;;5033922;28;20555;-51
2022/11/03 12:48:43;;;;;;;8.50;2.97;;;12.20;20.50;;;;;;5032681;28;20483;-51
2022/11/03 12:51:11;;;;;;;8.93;3.27;;;12.20;92.80;;;;;;5032731;28;20465;-53
2022/11/03 12:53:38;;;;;;;9.93;3.00;;;12.20;99.90;;;;;;5029919;28;21298;-52
2022/11/03 12:56:07;;;;;;;9.57;3.10;;;12.20;99.90;;;;;;5033529;28;20443;-52
2022/11/03 12:58:33;;;;;;;8.20;3.10;;;12.20;79.60;;;;;;5018412;28;20479;-52
2022/11/03 13:01:00;;;;;;;13.53;3.03;;;12.20;99.90;;;;;;5041061;28;20462;-54
2022/11/03 13:03:27;;;;;;;5.60;3.10;;;12.30;92.20;;;;;;5032097;28;20509;-51
2022/11/03 13:05:53;;;;;;;7.50;3.30;;;12.30;88.40;;;;;;5036131;28;20467;-52
2022/11/03 13:08:20;;;;;;;7.53;2.37;;;12.30;73.90;;;;;;5033212;28;20896;-52
2022/11/03 13:10:46;;;;;;;6.70;3.20;;;12.30;83.20;;;;;;5029645;28;20494;-51
2022/11/03 13:13:14;;;;;;;9.60;3.07;;;12.30;72.30;;;;;;5031623;28;20946;-51
2022/11/03 13:15:41;;;;;;;8.97;3.07;;;12.30;25.50;;;;;;5030875;28;20617;-52
2022/11/03 13:18:08;;;;;;;9.20;2.80;;;12.30;22.90;;;;;;5029348;28;20531;-51
2022/11/03 13:20:35;;;;;;;9.20;3.10;;;12.30;26.20;;;;;;5027963;28;20463;-51